createdAt,value
2018-10-15T00:03:46.780Z,17.27
2018-10-15T00:06:44.397Z,18.87
2018-10-15T00:12:26.243Z,17.10
2018-10-15T00:14:55.797Z,17.33
2018-10-15T00:17:31.929Z,18.17
2018-10-15T00:20:08.263Z,16.83
2018-10-15T00:22:37.477Z,17.10
2018-10-15T00:25:06.949Z,16.87
2018-10-15T00:27:36.661Z,17.70
2018-10-15T00:30:07.082Z,17.57
2018-10-15T00:32:36.178Z,17.57
2018-10-15T00:35:08.504Z,18.80
2018-10-15T00:37:42.590Z,17.77
2018-10-15T00:40:13.300Z,17.80
2018-10-15T00:42:43.889Z,17.60
2018-10-15T00:45:14.136Z,16.57
2018-10-15T00:47:43.459Z,17.33
2018-10-15T00:50:13.842Z,17.27
2018-10-15T00:52:43.979Z,18.60
2018-10-15T00:55:13.711Z,18.00
2018-10-15T00:57:43.856Z,18.93
2018-10-15T01:00:16.712Z,17.47
2018-10-15T01:02:48.773Z,18.43
2018-10-15T01:05:17.911Z,17.47
2018-10-15T01:07:47.006Z,18.00
2018-10-15T01:10:16.055Z,19.10
2018-10-15T01:12:45.111Z,17.60
2018-10-15T01:15:15.644Z,19.37
2018-10-15T01:17:44.703Z,17.90
2018-10-15T01:20:15.592Z,19.67
2018-10-15T01:22:44.692Z,19.00
2018-10-15T01:25:13.836Z,18.70
2018-10-15T01:27:43.598Z,18.93
2018-10-15T01:30:13.084Z,19.33
2018-10-15T01:32:42.379Z,19.53
2018-10-15T01:35:11.438Z,19.90
2018-10-15T01:37:40.511Z,19.63
2018-10-15T01:40:09.616Z,19.37
2018-10-15T01:42:38.770Z,20.20
2018-10-15T01:45:08.263Z,18.30
2018-10-15T01:47:37.624Z,19.40
2018-10-15T01:50:06.870Z,19.63
2018-10-15T01:52:36.163Z,20.83
2018-10-15T01:55:06.017Z,19.33
2018-10-15T01:57:35.265Z,19.70
2018-10-15T02:00:05.084Z,19.87
2018-10-15T02:02:34.345Z,20.47
2018-10-15T02:05:03.577Z,19.97
2018-10-15T02:07:32.763Z,21.23
2018-10-15T02:10:02.520Z,21.47
2018-10-15T02:12:31.995Z,19.30
2018-10-15T02:15:01.101Z,19.73
2018-10-15T02:17:30.163Z,19.67
2018-10-15T02:19:59.266Z,21.47
2018-10-15T02:22:28.421Z,19.17
2018-10-15T02:24:57.557Z,20.43
2018-10-15T02:27:26.699Z,20.93
2018-10-15T02:29:55.985Z,19.00
2018-10-15T02:32:25.134Z,20.40
2018-10-15T02:34:54.360Z,20.60
2018-10-15T02:37:23.551Z,21.30
2018-10-15T02:39:52.661Z,18.70
2018-10-15T02:42:21.848Z,20.23
2018-10-15T02:44:51.011Z,19.03
2018-10-15T02:47:20.285Z,20.20
2018-10-15T02:49:49.491Z,17.50
2018-10-15T02:52:18.621Z,20.50
2018-10-15T02:54:47.784Z,19.43
2018-10-15T02:57:16.832Z,20.80
2018-10-15T02:59:45.999Z,19.70
2018-10-15T03:02:15.057Z,19.60
2018-10-15T03:04:44.187Z,20.27
2018-10-15T03:07:13.389Z,20.07
2018-10-15T03:09:42.487Z,19.07
2018-10-15T03:12:11.553Z,18.80
2018-10-15T03:14:40.603Z,20.50
2018-10-15T03:17:09.635Z,18.90
2018-10-15T03:19:38.743Z,21.17
2018-10-15T03:22:07.823Z,19.03
2018-10-15T03:24:36.884Z,19.13
2018-10-15T03:27:06.309Z,21.33
2018-10-15T03:29:35.336Z,19.50
2018-10-15T03:32:04.527Z,19.20
2018-10-15T03:34:33.567Z,20.40
2018-10-15T03:37:02.620Z,19.80
2018-10-15T03:39:31.727Z,22.07
2018-10-15T03:42:00.815Z,20.13
2018-10-15T03:44:29.904Z,19.67
2018-10-15T03:46:58.917Z,19.93
2018-10-15T03:49:28.002Z,20.33
2018-10-15T03:51:57.061Z,20.73
2018-10-15T03:54:26.105Z,20.03
2018-10-15T03:56:55.175Z,20.87
2018-10-15T03:59:24.425Z,20.50
2018-10-15T04:01:53.520Z,21.80
2018-10-15T04:04:22.573Z,21.57
2018-10-15T04:06:51.656Z,21.43
2018-10-15T04:09:20.710Z,22.13
2018-10-15T04:11:49.802Z,22.20
2018-10-15T04:14:18.929Z,20.80
2018-10-15T04:16:48.006Z,21.53
2018-10-15T04:19:17.097Z,20.90
2018-10-15T04:21:46.211Z,21.37
2018-10-15T04:24:15.370Z,20.77
2018-10-15T04:26:44.450Z,20.67
2018-10-15T04:29:13.594Z,20.80
2018-10-15T04:31:42.640Z,21.17
2018-10-15T04:34:12.392Z,21.57
2018-10-15T04:36:41.474Z,20.60
2018-10-15T04:39:10.890Z,21.10
2018-10-15T04:41:41.256Z,22.37
2018-10-15T04:44:10.854Z,23.00
2018-10-15T04:46:40.492Z,20.50
2018-10-15T04:49:09.643Z,22.37
2018-10-15T04:51:38.670Z,22.43
2018-10-15T04:54:07.745Z,21.10
2018-10-15T04:56:37.096Z,21.43
2018-10-15T04:59:06.278Z,23.40
2018-10-15T05:01:35.412Z,20.73
2018-10-15T05:04:04.706Z,22.93
2018-10-15T05:06:34.470Z,22.10
2018-10-15T05:09:04.708Z,23.10
2018-10-15T05:11:33.822Z,23.30
2018-10-15T05:14:03.066Z,20.87
2018-10-15T05:16:32.224Z,22.70
2018-10-15T05:19:02.184Z,23.00
2018-10-15T05:21:31.320Z,23.07
2018-10-15T05:24:00.402Z,22.37
2018-10-15T05:26:29.454Z,24.50
2018-10-15T05:28:58.542Z,23.90
2018-10-15T05:31:27.709Z,23.83
2018-10-15T05:33:56.742Z,23.50
2018-10-15T05:36:25.818Z,22.70
2018-10-15T05:38:54.910Z,22.13
2018-10-15T05:41:24.086Z,22.63
2018-10-15T05:43:53.266Z,23.50
2018-10-15T05:46:22.460Z,21.90
2018-10-15T05:48:51.628Z,22.93
2018-10-15T05:51:20.695Z,21.10
2018-10-15T05:53:49.759Z,23.93
2018-10-15T05:56:18.789Z,21.83
2018-10-15T05:58:47.868Z,23.50
2018-10-15T06:01:17.235Z,24.20
2018-10-15T06:03:46.355Z,22.30
2018-10-15T06:06:15.545Z,22.37
2018-10-15T06:08:44.622Z,25.03
2018-10-15T06:11:13.882Z,23.70
2018-10-15T06:13:43.115Z,23.60
2018-10-15T06:16:12.318Z,23.00
2018-10-15T06:18:41.590Z,23.33
2018-10-15T06:21:11.299Z,22.97
2018-10-15T06:23:40.406Z,23.10
2018-10-15T06:26:09.480Z,24.23
2018-10-15T06:28:38.694Z,21.80
2018-10-15T06:31:07.805Z,21.90
2018-10-15T06:33:38.590Z,23.30
2018-10-15T06:36:07.835Z,22.87
2018-10-15T06:38:37.057Z,23.07
2018-10-15T06:41:06.307Z,23.53
2018-10-15T06:43:35.358Z,24.10
2018-10-15T06:46:04.400Z,23.37
2018-10-15T06:48:33.545Z,23.30
2018-10-15T06:51:02.703Z,21.70
2018-10-15T06:53:31.755Z,23.47
2018-10-15T06:56:00.923Z,21.50
2018-10-15T06:58:31.037Z,20.70
2018-10-15T07:01:00.282Z,25.00
2018-10-15T07:03:29.667Z,21.70
2018-10-15T07:05:58.845Z,21.43
2018-10-15T07:08:28.014Z,23.80
2018-10-15T07:10:57.261Z,24.43
2018-10-15T07:13:26.773Z,20.97
2018-10-15T07:15:55.859Z,21.90
2018-10-15T07:18:25.003Z,22.13
2018-10-15T07:20:54.247Z,21.43
2018-10-15T07:23:23.417Z,22.90
2018-10-15T07:25:53.378Z,21.60
2018-10-15T07:28:22.569Z,22.30
2018-10-15T07:30:51.625Z,20.67
2018-10-15T07:33:20.719Z,20.63
2018-10-15T07:35:49.886Z,20.30
2018-10-15T07:38:19.069Z,20.83
2018-10-15T07:40:48.119Z,21.53
2018-10-15T07:43:17.272Z,19.97
2018-10-15T07:45:46.355Z,19.93
2018-10-15T07:48:16.360Z,19.47
2018-10-15T07:50:45.748Z,19.37
2018-10-15T07:53:15.009Z,18.47
2018-10-15T07:55:44.844Z,19.60
2018-10-15T07:58:14.202Z,19.10
2018-10-15T08:00:43.923Z,24.97
2018-10-15T08:03:13.506Z,19.30
2018-10-15T08:05:43.591Z,20.20
2018-10-15T08:08:12.588Z,18.33
2018-10-15T08:10:41.758Z,18.17
2018-10-15T08:13:10.935Z,18.10
2018-10-15T08:15:40.219Z,16.93
2018-10-15T08:18:09.177Z,19.07
2018-10-15T08:20:38.760Z,17.70
2018-10-15T08:23:08.685Z,18.53
2018-10-15T08:25:38.373Z,27.00
2018-10-15T08:28:08.065Z,21.27
2018-10-15T08:30:37.317Z,19.10
2018-10-15T08:33:06.801Z,18.20
2018-10-15T08:35:36.671Z,16.80
2018-10-15T08:38:06.342Z,17.27
2018-10-15T08:40:36.743Z,16.73
2018-10-15T08:43:06.396Z,16.27
2018-10-15T08:45:35.909Z,17.70
2018-10-15T08:48:05.315Z,17.17
2018-10-15T08:50:34.542Z,16.70
2018-10-15T08:53:04.770Z,16.70
2018-10-15T08:55:34.168Z,16.67
2018-10-15T08:58:03.281Z,15.67
2018-10-15T09:01:21.720Z,16.07
2018-10-15T09:03:51.237Z,16.50
2018-10-15T09:12:43.060Z,16.53
2018-10-15T09:18:22.432Z,15.10
2018-10-15T09:24:12.156Z,15.97
2018-10-15T09:32:52.214Z,14.43
2018-10-15T09:35:21.436Z,16.00
2018-10-15T09:37:50.868Z,15.13
2018-10-15T09:40:21.311Z,16.37
2018-10-15T09:42:50.726Z,15.43
2018-10-15T09:45:21.254Z,16.70
2018-10-15T09:47:51.578Z,15.77
2018-10-15T09:50:20.947Z,13.73
2018-10-15T09:52:50.204Z,15.30
2018-10-15T09:55:19.575Z,15.17
2018-10-15T09:57:49.035Z,13.87
2018-10-15T10:00:23.202Z,14.50
2018-10-15T10:02:53.673Z,14.50
2018-10-15T10:05:22.901Z,14.90
2018-10-15T10:07:53.118Z,13.07
2018-10-15T10:10:22.301Z,14.80
2018-10-15T10:12:52.365Z,13.50
2018-10-15T10:15:22.685Z,14.00
2018-10-15T10:17:52.664Z,14.83
2018-10-15T10:20:21.834Z,12.73
2018-10-15T10:22:52.032Z,15.03
2018-10-15T10:25:21.443Z,14.07
2018-10-15T10:27:50.608Z,14.20
2018-10-15T10:30:20.002Z,14.23
2018-10-15T10:32:49.135Z,13.57
2018-10-15T10:36:03.430Z,13.47
2018-10-15T10:38:46.304Z,13.43
2018-10-15T10:41:15.457Z,14.50
2018-10-15T10:43:44.920Z,14.20
2018-10-15T10:46:14.373Z,15.37
2018-10-15T10:48:43.780Z,15.00
2018-10-15T10:51:12.873Z,14.33
2018-10-15T10:53:41.962Z,14.23
2018-10-15T10:56:11.358Z,15.53
2018-10-15T10:58:41.250Z,14.90
2018-10-15T11:01:10.504Z,15.13
2018-10-15T11:03:40.173Z,16.67
2018-10-15T11:06:09.416Z,14.00
2018-10-15T11:08:38.754Z,13.97
2018-10-15T11:11:08.180Z,14.37
2018-10-15T11:13:37.350Z,13.87
2018-10-15T11:16:07.135Z,14.00
2018-10-15T11:18:36.927Z,13.70
2018-10-15T11:21:06.276Z,13.07
2018-10-15T11:23:35.815Z,13.57
2018-10-15T11:26:05.009Z,14.00
2018-10-15T11:28:34.252Z,13.20
2018-10-15T11:31:03.459Z,13.67
2018-10-15T11:33:32.717Z,13.20
2018-10-15T11:36:01.895Z,12.70
2018-10-15T11:38:31.153Z,13.67
2018-10-15T11:41:01.339Z,13.80
2018-10-15T11:43:30.724Z,14.73
2018-10-15T11:46:00.474Z,12.10
2018-10-15T11:48:29.599Z,12.93
2018-10-15T11:50:58.837Z,13.53
2018-10-15T11:53:28.248Z,13.23
2018-10-15T11:56:04.055Z,13.20
2018-10-15T11:58:33.197Z,12.40
2018-10-15T12:01:02.805Z,12.43
2018-10-15T12:03:31.947Z,11.70
2018-10-15T12:06:01.183Z,12.50
2018-10-15T12:08:30.365Z,12.57
2018-10-15T12:10:59.602Z,12.57
2018-10-15T12:13:28.929Z,12.23
2018-10-15T12:15:58.195Z,12.17
2018-10-15T12:18:27.325Z,13.53
2018-10-15T12:20:56.483Z,12.00
2018-10-15T12:23:25.718Z,12.77
2018-10-15T12:25:54.951Z,12.00
2018-10-15T12:28:23.993Z,11.93
2018-10-15T12:30:53.199Z,12.30
2018-10-15T12:33:22.331Z,12.23
2018-10-15T12:35:51.512Z,11.00
2018-10-15T12:38:20.698Z,13.00
2018-10-15T12:40:50.375Z,12.30
2018-10-15T12:43:19.548Z,11.27
2018-10-15T12:45:50.551Z,10.70
2018-10-15T12:48:20.372Z,12.10
2018-10-15T12:50:49.566Z,10.87
2018-10-15T12:53:18.876Z,10.67
2018-10-15T12:55:48.171Z,11.10
2018-10-15T12:58:17.660Z,9.50
2018-10-15T13:00:47.212Z,10.37
2018-10-15T13:03:16.417Z,10.53
2018-10-15T13:05:45.540Z,8.90
2018-10-15T13:08:14.989Z,8.57
2018-10-15T13:10:44.110Z,9.60
2018-10-15T13:13:13.458Z,10.33
2018-10-15T13:15:42.638Z,9.13
2018-10-15T13:18:11.746Z,7.27
2018-10-15T13:20:40.829Z,9.63
2018-10-15T13:23:10.079Z,9.50
2018-10-15T13:25:39.158Z,23.50
2018-10-15T13:28:08.348Z,8.77
2018-10-15T13:30:37.504Z,9.00
2018-10-15T13:33:06.625Z,9.43
2018-10-15T13:35:35.677Z,9.00
2018-10-15T13:38:04.908Z,7.60
2018-10-15T13:40:33.994Z,7.90
2018-10-15T13:43:03.252Z,8.33
2018-10-15T13:45:32.311Z,7.13
2018-10-15T13:48:01.727Z,7.10
2018-10-15T13:50:30.872Z,6.90
2018-10-15T13:53:00.185Z,8.70
2018-10-15T13:55:29.740Z,7.63
2018-10-15T13:57:58.908Z,8.67
2018-10-15T14:00:34.624Z,8.47
2018-10-15T14:03:04.508Z,7.57
2018-10-15T14:05:33.703Z,7.07
2018-10-15T14:08:03.159Z,8.00
2018-10-15T14:10:32.510Z,9.00
2018-10-15T14:13:01.996Z,9.77
2018-10-15T14:15:31.441Z,7.13
2018-10-15T14:18:01.333Z,6.83
2018-10-15T14:20:30.804Z,6.30
2018-10-15T14:22:59.912Z,7.47
2018-10-15T14:25:28.988Z,7.97
2018-10-15T14:27:58.246Z,7.60
2018-10-15T14:30:27.400Z,7.60
2018-10-15T14:32:56.626Z,8.10
2018-10-15T14:35:25.935Z,7.90
2018-10-15T14:37:55.178Z,8.27
2018-10-15T14:40:24.532Z,8.50
2018-10-15T14:42:53.872Z,8.27
2018-10-15T14:45:23.146Z,8.50
2018-10-15T14:47:52.562Z,7.60
2018-10-15T14:50:23.817Z,8.47
2018-10-15T14:52:53.648Z,8.47
2018-10-15T14:55:22.961Z,8.40
2018-10-15T14:57:52.087Z,7.70
2018-10-15T15:00:21.186Z,7.40
2018-10-15T15:02:50.400Z,8.63
2018-10-15T15:05:19.536Z,8.47
2018-10-15T15:07:48.779Z,8.43
2018-10-15T15:10:34.982Z,7.63
2018-10-15T15:13:21.201Z,7.57
2018-10-15T15:15:50.624Z,7.17
2018-10-15T15:18:19.846Z,6.70
2018-10-15T15:20:49.189Z,16.70
2018-10-15T15:23:18.599Z,7.67
2018-10-15T15:25:47.927Z,10.03
2018-10-15T15:28:17.061Z,9.83
2018-10-15T15:30:46.574Z,8.00
2018-10-15T15:33:16.201Z,8.17
2018-10-15T15:35:45.384Z,7.80
2018-10-15T15:38:14.692Z,7.73
2018-10-15T15:40:44.246Z,8.13
2018-10-15T15:43:13.872Z,9.40
2018-10-15T15:45:43.609Z,10.10
2018-10-15T15:48:13.667Z,8.40
2018-10-15T15:50:43.682Z,9.03
2018-10-15T15:53:13.056Z,10.57
2018-10-15T15:55:42.309Z,12.57
2018-10-15T15:58:11.459Z,10.27
2018-10-15T16:00:41.213Z,9.77
2018-10-15T16:03:11.297Z,11.20
2018-10-15T16:05:40.766Z,9.80
2018-10-15T16:08:09.989Z,10.70
2018-10-15T16:10:39.185Z,11.63
2018-10-15T16:13:08.356Z,10.40
2018-10-15T16:15:37.550Z,11.00
2018-10-15T16:18:06.825Z,10.70
2018-10-15T16:20:36.198Z,12.03
2018-10-15T16:23:05.681Z,12.27
2018-10-15T16:25:34.783Z,12.43
2018-10-15T16:28:05.573Z,12.50
2018-10-15T16:30:35.725Z,14.90
2018-10-15T16:33:06.228Z,13.03
2018-10-15T16:35:35.539Z,12.73
2018-10-15T16:38:05.070Z,11.13
2018-10-15T16:40:34.783Z,11.53
2018-10-15T16:45:42.009Z,11.53
2018-10-15T16:48:11.279Z,12.97
2018-10-15T16:50:40.754Z,12.90
2018-10-15T16:53:10.117Z,13.60
2018-10-15T16:55:39.518Z,11.73
2018-10-15T16:58:09.285Z,13.53
2018-10-15T17:00:38.609Z,13.10
2018-10-15T17:03:08.085Z,12.07
2018-10-15T17:05:37.674Z,12.50
2018-10-15T17:08:09.645Z,12.33
2018-10-15T17:10:38.953Z,12.57
2018-10-15T17:13:08.019Z,14.10
2018-10-15T17:15:37.124Z,14.27
2018-10-15T17:18:06.875Z,14.50
2018-10-15T17:20:35.983Z,14.57
2018-10-15T17:23:05.218Z,14.70
2018-10-15T17:25:34.898Z,13.30
2018-10-15T17:28:04.358Z,13.80
2018-10-15T17:30:33.529Z,14.40
2018-10-15T17:33:02.680Z,15.60
2018-10-15T17:35:31.867Z,14.20
2018-10-15T17:38:00.963Z,14.60
2018-10-15T17:40:30.100Z,15.03
2018-10-15T17:42:59.215Z,15.67
2018-10-15T17:45:28.393Z,15.60
2018-10-15T17:47:57.501Z,14.27
2018-10-15T17:50:26.697Z,14.77
2018-10-15T17:52:55.936Z,15.63
2018-10-15T17:55:24.961Z,15.10
2018-10-15T17:57:54.167Z,14.77
2018-10-15T18:00:31.331Z,16.67
2018-10-15T18:03:00.706Z,23.27
2018-10-15T18:05:29.910Z,22.80
2018-10-15T18:07:59.415Z,17.33
2018-10-15T18:10:28.558Z,14.90
2018-10-15T18:12:59.076Z,16.17
2018-10-15T18:15:28.404Z,15.57
2018-10-15T18:18:05.506Z,15.93
2018-10-15T18:21:08.018Z,18.07
2018-10-15T18:23:38.612Z,16.47
2018-10-15T18:26:08.543Z,18.33
2018-10-15T18:28:37.942Z,18.03
2018-10-15T18:31:09.160Z,16.17
2018-10-15T18:33:38.650Z,16.27
2018-10-15T18:36:07.960Z,16.53
2018-10-15T18:38:37.191Z,17.20
2018-10-15T18:41:07.051Z,17.90
2018-10-15T18:43:36.474Z,17.70
2018-10-15T18:46:05.911Z,18.40
2018-10-15T18:48:35.153Z,21.00
2018-10-15T18:51:04.295Z,17.50
2018-10-15T18:53:33.522Z,20.10
2018-10-15T18:56:02.691Z,18.57
2018-10-15T18:58:32.750Z,20.40
2018-10-15T19:01:02.127Z,20.00
2018-10-15T19:03:31.270Z,21.33
2018-10-15T19:06:00.971Z,19.27
2018-10-15T19:08:30.405Z,21.50
2018-10-15T19:10:59.663Z,21.37
2018-10-15T19:13:28.918Z,22.97
2018-10-15T19:15:58.200Z,21.13
2018-10-15T19:18:27.561Z,20.00
2018-10-15T19:20:56.844Z,20.47
2018-10-15T19:23:26.205Z,36.33
2018-10-15T19:25:55.607Z,28.83
2018-10-15T19:28:24.785Z,26.00
2018-10-15T19:30:54.706Z,21.80
2018-10-15T19:33:23.955Z,20.53
2018-10-15T19:35:53.404Z,21.87
2018-10-15T19:38:22.515Z,21.93
2018-10-15T19:40:51.752Z,21.80
2018-10-15T19:43:21.104Z,23.57
2018-10-15T19:45:51.485Z,22.87
2018-10-15T19:48:20.977Z,23.40
2018-10-15T19:50:50.125Z,22.43
2018-10-15T19:53:19.343Z,24.80
2018-10-15T19:55:49.105Z,24.47
2018-10-15T19:58:18.901Z,23.30
2018-10-15T20:00:48.251Z,23.77
2018-10-15T20:03:18.121Z,28.03
2018-10-15T20:05:48.417Z,26.47
2018-10-15T20:08:18.147Z,22.33
2018-10-15T20:10:47.998Z,30.40
2018-10-15T20:13:17.307Z,30.27
2018-10-15T20:15:46.510Z,25.33
2018-10-15T20:18:15.623Z,26.70
2018-10-15T20:20:45.041Z,24.63
2018-10-15T20:23:14.261Z,28.77
2018-10-15T20:25:44.092Z,47.43
2018-10-15T20:28:13.387Z,36.40
2018-10-15T20:30:42.654Z,21.97
2018-10-15T20:33:11.989Z,22.40
2018-10-15T20:35:41.242Z,23.60
2018-10-15T20:38:10.843Z,22.27
2018-10-15T20:40:39.993Z,23.40
2018-10-15T20:43:09.143Z,20.90
2018-10-15T20:45:38.415Z,23.30
2018-10-15T20:48:07.807Z,21.93
2018-10-15T20:50:37.235Z,23.03
2018-10-15T20:53:06.671Z,24.20
2018-10-15T20:55:36.043Z,21.80
2018-10-15T20:58:06.573Z,22.13
2018-10-15T21:00:35.740Z,23.73
2018-10-15T21:03:05.635Z,25.97
2018-10-15T21:05:35.247Z,23.10
2018-10-15T21:08:04.540Z,23.33
2018-10-15T21:10:34.661Z,23.60
2018-10-15T21:13:03.799Z,22.67
2018-10-15T21:15:32.915Z,22.90
2018-10-15T21:18:02.069Z,23.70
2018-10-15T21:20:31.234Z,22.00
2018-10-15T21:23:00.405Z,22.53
2018-10-15T21:25:29.517Z,23.83
2018-10-15T21:27:58.870Z,25.27
2018-10-15T21:30:28.020Z,23.07
2018-10-15T21:32:57.139Z,24.20
2018-10-15T21:35:26.403Z,23.37
2018-10-15T21:37:55.545Z,23.40
2018-10-15T21:40:24.649Z,23.10
2018-10-15T21:42:53.803Z,21.40
2018-10-15T21:45:23.026Z,22.37
2018-10-15T21:47:52.241Z,23.63
2018-10-15T21:50:23.131Z,24.03
2018-10-15T21:52:52.501Z,23.10
2018-10-15T21:55:21.771Z,23.63
2018-10-15T21:57:51.076Z,22.83
2018-10-15T22:00:20.380Z,21.53
2018-10-15T22:02:50.066Z,23.27
2018-10-15T22:05:20.419Z,21.67
2018-10-15T22:07:49.762Z,23.60
2018-10-15T22:10:24.497Z,23.40
2018-10-15T22:12:54.051Z,21.70
2018-10-15T22:15:23.372Z,23.97
2018-10-15T22:17:52.574Z,23.27
2018-10-15T22:20:21.906Z,20.47
2018-10-15T22:22:51.155Z,22.00
2018-10-15T22:25:20.403Z,21.10
2018-10-15T22:27:50.435Z,23.47
2018-10-15T22:30:19.808Z,22.57
2018-10-15T22:32:49.089Z,22.87
2018-10-15T22:35:18.567Z,22.03
2018-10-15T22:37:48.223Z,23.90
2018-10-15T22:40:17.330Z,20.80
2018-10-15T22:42:46.697Z,24.30
2018-10-15T22:45:15.917Z,24.57
2018-10-15T22:47:45.274Z,22.90
2018-10-15T22:50:14.438Z,21.50
2018-10-15T22:52:44.010Z,22.13
2018-10-15T22:55:13.250Z,23.60
2018-10-15T22:57:42.525Z,24.77
2018-10-15T23:00:15.701Z,21.57
2018-10-15T23:02:45.010Z,21.40
2018-10-15T23:05:14.386Z,23.97
2018-10-15T23:07:44.266Z,22.83
2018-10-15T23:10:19.056Z,21.43
2018-10-15T23:12:49.309Z,21.70
2018-10-15T23:15:18.480Z,23.70
2018-10-15T23:17:47.629Z,20.33
2018-10-15T23:20:16.906Z,22.40
2018-10-15T23:22:46.142Z,22.03
2018-10-15T23:25:15.478Z,22.63
2018-10-15T23:27:44.752Z,20.20
2018-10-15T23:30:13.862Z,21.40
2018-10-15T23:32:43.588Z,20.23
2018-10-15T23:35:13.820Z,21.83
2018-10-15T23:37:44.077Z,20.77
2018-10-15T23:40:20.136Z,19.97
2018-10-15T23:42:49.212Z,20.27
2018-10-15T23:45:18.369Z,20.07
2018-10-15T23:47:47.502Z,20.43
2018-10-15T23:50:16.580Z,20.17
2018-10-15T23:52:45.832Z,19.60
2018-10-15T23:55:15.008Z,20.50
2018-10-15T23:57:44.177Z,20.87
